Terminal Aerodrome Forecast
Issued by NWS Duluth, MN

Current Version | Previous Version | Text Only | Print | Product List | Glossary On
Versions: 1 2 3 4 5 6 7 8 9 10 11 12 13 14 15 16 17 18 19
000
FTUS43 KDLH 110531
TAFDLH
TAF
KDLH 110531Z 1106/1206 06004KT P6SM -SN FEW007 SCT010 BKN100
      TEMPO 1106/1110 6SM -SN SCT007 OVC010
     FM111000 08006KT 5SM -SN SCT006 OVC010
     FM111300 10010KT 1SM -SN BR OVC009
      TEMPO 1114/1118 1/2SM SN VV005
     FM111900 07009KT 2SM -SN BR OVC009
     FM120200 36006KT 5SM -SN BR OVC010=

USA.gov is the U.S. government's official web portal to all federal, state and local government web resources and services.